createdAt,value
2017-07-17T00:02:19.890Z,12.02
2017-07-17T00:04:48.204Z,12.88
2017-07-17T00:07:16.404Z,12.07
2017-07-17T00:09:43.966Z,11.48
2017-07-17T00:12:11.518Z,12.80
2017-07-17T00:14:39.112Z,11.63
2017-07-17T00:17:07.432Z,12.30
2017-07-17T00:19:35.290Z,13.05
2017-07-17T00:22:02.843Z,12.35
2017-07-17T00:24:30.398Z,13.52
2017-07-17T00:26:58.055Z,11.93
2017-07-17T00:29:26.375Z,14.13
2017-07-17T00:31:53.987Z,13.98
2017-07-17T00:34:22.306Z,14.13
2017-07-17T00:36:49.847Z,13.65
2017-07-17T00:39:17.438Z,14.23
2017-07-17T00:41:45.005Z,14.07
2017-07-17T00:44:12.702Z,13.50
2017-07-17T00:46:41.062Z,13.15
2017-07-17T00:49:08.803Z,13.77
2017-07-17T00:51:37.201Z,13.25
2017-07-17T00:54:04.749Z,13.95
2017-07-17T00:56:32.304Z,13.50
2017-07-17T00:58:59.890Z,12.98
2017-07-17T01:01:27.439Z,13.43
2017-07-17T01:03:55.514Z,14.43
2017-07-17T01:06:23.062Z,12.75
2017-07-17T01:08:50.617Z,12.45
2017-07-17T01:11:18.204Z,14.27
2017-07-17T01:13:45.795Z,13.27
2017-07-17T01:16:14.147Z,12.20
2017-07-17T01:18:41.697Z,12.20
2017-07-17T01:21:09.402Z,12.40
2017-07-17T01:23:37.716Z,12.35
2017-07-17T01:26:05.306Z,11.60
2017-07-17T01:28:32.895Z,11.20
2017-07-17T01:31:01.772Z,14.10
2017-07-17T01:33:29.324Z,12.40
2017-07-17T01:35:56.871Z,12.35
2017-07-17T01:38:24.839Z,11.90
2017-07-17T01:40:52.391Z,12.90
2017-07-17T01:43:19.955Z,11.38
2017-07-17T01:45:47.545Z,12.25
2017-07-17T01:48:15.095Z,12.15
2017-07-17T01:50:43.034Z,12.35
2017-07-17T01:53:10.586Z,12.60
2017-07-17T01:55:38.306Z,12.82
2017-07-17T01:58:06.622Z,15.45
2017-07-17T02:00:34.207Z,12.30
2017-07-17T02:03:01.819Z,12.10
2017-07-17T02:05:29.367Z,12.50
2017-07-17T02:07:57.692Z,12.18
2017-07-17T02:10:25.612Z,11.63
2017-07-17T02:12:53.935Z,12.13
2017-07-17T02:15:21.533Z,12.75
2017-07-17T02:17:49.142Z,12.07
2017-07-17T02:20:16.698Z,11.50
2017-07-17T02:22:44.243Z,11.73
2017-07-17T02:25:11.830Z,12.37
2017-07-17T02:27:39.373Z,10.82
2017-07-17T02:30:07.022Z,11.85
2017-07-17T02:32:35.330Z,11.63
2017-07-17T02:35:02.885Z,14.20
2017-07-17T02:37:30.623Z,12.02
2017-07-17T02:39:58.929Z,11.00
2017-07-17T02:42:26.558Z,10.77
2017-07-17T02:44:54.874Z,11.12
2017-07-17T02:47:22.421Z,11.60
2017-07-17T02:49:50.134Z,11.43
2017-07-17T02:52:18.210Z,11.23
2017-07-17T02:54:45.753Z,11.75
2017-07-17T02:57:13.338Z,11.27
2017-07-17T02:59:40.892Z,11.10
2017-07-17T03:02:08.745Z,11.93
2017-07-17T03:04:36.295Z,11.90
2017-07-17T03:07:03.843Z,11.60
2017-07-17T03:09:31.434Z,12.52
2017-07-17T03:11:59.018Z,11.90
2017-07-17T03:14:27.338Z,12.13
2017-07-17T03:16:54.925Z,11.65
2017-07-17T03:19:22.476Z,12.00
2017-07-17T03:21:50.214Z,11.70
2017-07-17T03:24:17.755Z,11.30
2017-07-17T03:26:46.103Z,11.40
2017-07-17T03:29:13.655Z,12.73
2017-07-17T03:31:43.938Z,11.30
2017-07-17T03:34:11.482Z,11.20
2017-07-17T03:36:39.030Z,11.95
2017-07-17T03:39:07.578Z,12.77
2017-07-17T03:41:35.162Z,12.40
2017-07-17T03:44:02.713Z,15.82
2017-07-17T03:46:30.303Z,12.50
2017-07-17T03:48:58.605Z,13.60
2017-07-17T03:51:26.213Z,13.88
2017-07-17T03:53:59.039Z,12.68
2017-07-17T03:56:26.816Z,13.05
2017-07-17T03:58:54.367Z,15.25
2017-07-17T04:01:22.342Z,12.60
2017-07-17T04:03:49.887Z,17.23
2017-07-17T04:06:17.435Z,11.12
2017-07-17T04:08:45.151Z,12.70
2017-07-17T04:11:12.692Z,11.77
2017-07-17T04:13:40.242Z,11.88
2017-07-17T04:16:07.895Z,12.40
2017-07-17T04:18:35.491Z,12.70
2017-07-17T04:21:03.034Z,13.27
2017-07-17T04:23:30.617Z,13.23
2017-07-17T04:25:58.163Z,13.20
2017-07-17T04:28:25.751Z,13.20
2017-07-17T04:30:53.293Z,14.52
2017-07-17T04:33:21.587Z,12.48
2017-07-17T04:35:49.138Z,11.98
2017-07-17T04:38:16.721Z,13.45
2017-07-17T04:40:44.674Z,13.27
2017-07-17T04:43:12.222Z,12.80
2017-07-17T04:45:39.765Z,13.70
2017-07-17T04:48:07.971Z,13.20
2017-07-17T04:50:35.515Z,13.45
2017-07-17T04:53:03.129Z,13.40
2017-07-17T04:55:31.784Z,13.07
2017-07-17T04:57:59.333Z,13.75
2017-07-17T05:00:26.880Z,12.80
2017-07-17T05:02:54.759Z,13.62
2017-07-17T05:05:22.307Z,15.40
2017-07-17T05:07:49.860Z,13.88
2017-07-17T05:10:17.446Z,13.38
2017-07-17T05:12:45.106Z,13.68
2017-07-17T05:15:12.958Z,14.35
2017-07-17T05:17:40.502Z,13.98
2017-07-17T05:20:08.047Z,13.50
2017-07-17T05:22:35.829Z,14.63
2017-07-17T05:25:04.921Z,14.70
2017-07-17T05:27:32.476Z,14.23
2017-07-17T05:30:00.026Z,14.80
2017-07-17T05:32:27.682Z,13.48
2017-07-17T05:34:55.409Z,14.23
2017-07-17T05:37:23.142Z,15.07
2017-07-17T05:39:50.708Z,14.55
2017-07-17T05:42:18.338Z,13.55
2017-07-17T05:44:45.891Z,15.02
2017-07-17T05:47:14.205Z,15.68
2017-07-17T05:49:41.938Z,14.45
2017-07-17T05:52:12.912Z,14.82
2017-07-17T05:54:40.467Z,14.25
2017-07-17T05:57:08.647Z,14.90
2017-07-17T05:59:36.199Z,14.80
2017-07-17T06:02:03.751Z,16.12
2017-07-17T06:04:31.335Z,17.08
2017-07-17T06:06:59.189Z,16.58
2017-07-17T06:09:26.733Z,16.45
2017-07-17T06:11:54.287Z,17.40
2017-07-17T06:14:21.948Z,18.98
2017-07-17T06:16:49.501Z,16.65
2017-07-17T06:19:20.298Z,19.08
2017-07-17T06:21:47.846Z,16.75
2017-07-17T06:24:15.409Z,17.20
2017-07-17T06:26:42.998Z,17.75
2017-07-17T06:29:10.731Z,22.37
2017-07-17T06:31:38.282Z,18.90
2017-07-17T06:34:06.269Z,19.23
2017-07-17T06:36:33.822Z,18.40
2017-07-17T06:39:01.377Z,21.87
2017-07-17T06:41:28.966Z,19.40
2017-07-17T06:43:56.527Z,22.30
2017-07-17T06:46:24.539Z,20.75
2017-07-17T06:48:52.086Z,20.02
2017-07-17T06:51:19.706Z,19.30
2017-07-17T06:53:50.959Z,20.65
2017-07-17T06:56:18.508Z,18.65
2017-07-17T06:58:46.103Z,20.62
2017-07-17T07:01:14.762Z,19.25
2017-07-17T07:03:42.307Z,20.25
2017-07-17T07:06:09.870Z,18.85
2017-07-17T07:08:37.482Z,22.05
2017-07-17T07:11:05.797Z,21.80
2017-07-17T07:13:33.346Z,23.45
2017-07-17T07:16:00.938Z,23.12
2017-07-17T07:18:29.412Z,22.30
2017-07-17T07:20:57.083Z,21.23
2017-07-17T07:23:24.634Z,20.08
2017-07-17T07:25:52.229Z,21.90
2017-07-17T07:28:20.592Z,20.23
2017-07-17T07:30:48.141Z,16.67
2017-07-17T07:33:16.118Z,18.70
2017-07-17T07:35:43.679Z,16.02
2017-07-17T07:38:11.237Z,14.20
2017-07-17T07:40:38.837Z,13.43
2017-07-17T07:43:06.480Z,15.85
2017-07-17T07:45:34.816Z,17.08
2017-07-17T07:48:02.368Z,11.00
2017-07-17T07:50:29.962Z,15.52
2017-07-17T07:52:58.903Z,10.65
2017-07-17T07:55:26.557Z,7.90
2017-07-17T07:57:54.151Z,6.97
2017-07-17T08:00:21.717Z,6.40
2017-07-17T08:02:49.599Z,7.68
2017-07-17T08:05:17.150Z,6.78
2017-07-17T08:07:44.715Z,6.80
2017-07-17T08:10:12.310Z,8.07
2017-07-17T08:12:41.277Z,6.95
2017-07-17T08:15:08.826Z,6.90
2017-07-17T08:17:36.454Z,7.85
2017-07-17T08:20:04.002Z,7.78
2017-07-17T08:22:31.554Z,6.47
2017-07-17T08:24:59.150Z,7.37
2017-07-17T08:27:26.739Z,6.68
2017-07-17T08:29:54.286Z,4.57
2017-07-17T08:32:22.166Z,4.32
2017-07-17T08:34:49.707Z,4.00
2017-07-17T08:37:17.261Z,3.70
2017-07-17T08:39:45.029Z,3.95
2017-07-17T08:42:13.022Z,3.55
2017-07-17T08:44:40.566Z,3.55
2017-07-17T08:47:08.114Z,3.42
2017-07-17T08:49:36.012Z,3.28
2017-07-17T08:52:03.747Z,2.65
2017-07-17T08:54:31.298Z,2.87
2017-07-17T08:57:00.173Z,2.70
2017-07-17T08:59:27.720Z,3.37
2017-07-17T09:01:56.036Z,2.53
2017-07-17T09:04:23.718Z,2.45
2017-07-17T09:06:51.257Z,4.20
2017-07-17T09:09:19.257Z,6.20
2017-07-17T09:11:46.810Z,8.10
2017-07-17T09:14:14.363Z,10.57
2017-07-17T09:16:42.863Z,11.20
2017-07-17T09:19:10.423Z,11.23
2017-07-17T09:21:37.982Z,13.82
2017-07-17T09:24:05.614Z,15.07
2017-07-17T09:26:33.255Z,16.87
2017-07-17T09:29:00.810Z,17.50
2017-07-17T09:31:28.371Z,18.17
2017-07-17T09:33:57.221Z,20.23
2017-07-17T09:36:24.782Z,18.80
2017-07-17T09:38:52.378Z,21.92
2017-07-17T09:41:20.736Z,22.13
2017-07-17T09:43:48.290Z,22.33
2017-07-17T09:46:15.985Z,23.15
2017-07-17T09:48:43.538Z,21.35
2017-07-17T09:51:11.894Z,23.17
2017-07-17T09:53:40.118Z,22.50
2017-07-17T09:56:07.710Z,22.02
2017-07-17T09:58:35.264Z,22.10
2017-07-17T10:01:02.991Z,20.30
2017-07-17T10:03:30.545Z,19.80
2017-07-17T10:05:58.897Z,19.77
2017-07-17T10:08:26.446Z,20.10
2017-07-17T10:10:54.410Z,20.62
2017-07-17T10:13:21.958Z,21.60
2017-07-17T10:15:49.514Z,19.30
2017-07-17T10:18:17.471Z,20.27
2017-07-17T10:20:45.022Z,17.97
2017-07-17T10:23:12.769Z,19.30
2017-07-17T10:25:40.324Z,18.43
2017-07-17T10:28:08.634Z,18.13
2017-07-17T10:30:36.222Z,19.98
2017-07-17T10:33:03.813Z,18.20
2017-07-17T10:35:32.125Z,18.40
2017-07-17T10:37:59.735Z,17.85
2017-07-17T10:40:27.281Z,16.60
2017-07-17T10:42:54.831Z,17.63
2017-07-17T10:45:22.491Z,16.63
2017-07-17T10:47:50.043Z,17.87
2017-07-17T10:50:17.600Z,19.23
2017-07-17T10:52:45.562Z,20.03
2017-07-17T10:55:13.150Z,18.00
2017-07-17T10:57:41.126Z,19.75
2017-07-17T11:00:08.678Z,19.43
2017-07-17T11:02:36.218Z,19.30
2017-07-17T11:05:08.735Z,21.27
2017-07-17T11:07:36.306Z,21.20
2017-07-17T11:10:05.482Z,21.13
2017-07-17T11:12:33.031Z,21.47
2017-07-17T11:15:00.585Z,21.60
2017-07-17T11:17:28.582Z,23.73
2017-07-17T11:19:56.924Z,23.90
2017-07-17T11:22:24.482Z,24.30
2017-07-17T11:24:52.162Z,24.20
2017-07-17T11:27:19.710Z,24.63
2017-07-17T11:29:47.257Z,22.70
2017-07-17T11:32:14.967Z,21.67
2017-07-17T11:34:42.559Z,21.70
2017-07-17T11:37:10.876Z,20.87
2017-07-17T11:39:38.582Z,19.60
2017-07-17T11:42:06.135Z,19.57
2017-07-17T11:44:33.687Z,20.13
2017-07-17T11:57:14.638Z,18.47
2017-07-17T11:59:42.178Z,16.57
2017-07-17T12:02:13.434Z,16.13
2017-07-17T12:04:40.986Z,16.83
2017-07-17T12:07:08.860Z,17.47
2017-07-17T12:09:36.431Z,18.50
2017-07-17T12:12:03.991Z,23.60
2017-07-17T12:14:31.945Z,21.97
2017-07-17T12:16:59.495Z,24.77
2017-07-17T12:19:27.046Z,26.37
2017-07-17T12:21:55.142Z,26.40
2017-07-17T12:24:22.837Z,25.43
2017-07-17T12:26:51.165Z,24.13
2017-07-17T12:29:18.714Z,23.13
2017-07-17T12:31:46.299Z,21.93
2017-07-17T12:34:13.845Z,21.07
2017-07-17T12:36:41.441Z,19.53
2017-07-17T12:39:08.993Z,20.13
2017-07-17T12:41:36.543Z,19.70
2017-07-17T12:44:04.134Z,19.67
2017-07-17T12:46:31.679Z,17.40
2017-07-17T12:48:59.266Z,16.93
2017-07-17T12:51:26.812Z,16.60
2017-07-17T12:53:54.569Z,18.73
2017-07-17T12:56:22.930Z,15.53
2017-07-17T12:58:50.810Z,14.67
2017-07-17T13:01:18.363Z,14.20
2017-07-17T13:03:45.923Z,12.50
2017-07-17T13:06:13.770Z,14.60
2017-07-17T13:08:41.319Z,13.10
2017-07-17T13:11:08.862Z,13.20
2017-07-17T13:13:36.529Z,13.33
2017-07-17T13:16:04.070Z,12.03
2017-07-17T13:18:32.418Z,12.13
2017-07-17T13:20:59.970Z,11.10
2017-07-17T13:23:28.246Z,11.90
2017-07-17T13:25:55.835Z,11.30
2017-07-17T13:28:23.378Z,10.00
2017-07-17T13:30:51.305Z,11.53
2017-07-17T13:33:18.846Z,11.43
2017-07-17T13:35:46.395Z,10.97
2017-07-17T13:38:13.990Z,10.43
2017-07-17T13:40:41.582Z,9.50
2017-07-17T13:43:09.165Z,9.13
2017-07-17T13:45:36.721Z,8.67
2017-07-17T13:48:04.871Z,8.80
2017-07-17T13:50:32.422Z,9.27
2017-07-17T13:52:59.957Z,7.00
2017-07-17T13:55:27.538Z,8.27
2017-07-17T13:57:56.837Z,9.10
2017-07-17T14:00:24.373Z,9.50
2017-07-17T14:02:52.171Z,8.50
2017-07-17T14:05:19.726Z,9.00
2017-07-17T14:07:47.260Z,8.33
2017-07-17T14:10:14.855Z,8.60
2017-07-17T14:12:42.400Z,8.23
2017-07-17T14:15:10.288Z,8.17
2017-07-17T14:17:37.822Z,8.00
2017-07-17T14:20:05.354Z,7.97
2017-07-17T14:22:33.322Z,7.90
2017-07-17T14:25:01.631Z,8.00
2017-07-17T14:27:29.169Z,7.70
2017-07-17T14:29:57.089Z,8.20
2017-07-17T14:32:24.626Z,7.87
2017-07-17T14:34:52.167Z,7.47
2017-07-17T14:37:19.754Z,7.70
2017-07-17T14:39:47.320Z,8.37
2017-07-17T14:42:15.050Z,8.10
2017-07-17T14:44:42.582Z,8.40
2017-07-17T14:47:10.157Z,8.30
2017-07-17T14:49:38.449Z,9.53
2017-07-17T14:52:06.360Z,9.93
2017-07-17T14:54:33.894Z,9.70
2017-07-17T14:57:01.438Z,10.13
2017-07-17T14:59:34.254Z,9.80
2017-07-17T15:02:01.830Z,10.37
2017-07-17T15:04:29.369Z,10.77
2017-07-17T15:06:57.069Z,11.20
2017-07-17T15:09:24.615Z,11.63
2017-07-17T15:11:52.210Z,10.60
2017-07-17T15:14:20.524Z,11.27
2017-07-17T15:16:48.370Z,11.83
2017-07-17T15:19:15.918Z,11.30
2017-07-17T15:21:43.464Z,12.33
2017-07-17T15:24:11.817Z,11.30
2017-07-17T15:26:40.814Z,11.70
2017-07-17T15:29:08.363Z,11.00
2017-07-17T15:31:35.933Z,9.87
2017-07-17T15:34:03.474Z,9.43
2017-07-17T15:36:31.766Z,9.90
2017-07-17T15:38:59.329Z,10.07
2017-07-17T15:41:26.862Z,9.80
2017-07-17T15:43:54.875Z,9.33
2017-07-17T15:46:23.185Z,8.70
2017-07-17T15:48:50.721Z,8.67
2017-07-17T15:51:18.420Z,9.03
2017-07-17T15:53:46.317Z,9.00
2017-07-17T15:56:13.868Z,10.30
2017-07-17T15:58:41.406Z,10.50
2017-07-17T16:01:09.409Z,11.33
2017-07-17T16:03:36.990Z,11.37
2017-07-17T16:06:04.583Z,11.07
2017-07-17T16:08:32.166Z,11.43
2017-07-17T16:10:59.700Z,10.50
2017-07-17T16:13:27.278Z,11.77
2017-07-17T16:15:54.922Z,12.47
2017-07-17T16:18:22.569Z,12.00
2017-07-17T16:20:50.873Z,11.33
2017-07-17T16:23:18.453Z,11.53
2017-07-17T16:25:45.994Z,10.70
2017-07-17T16:28:13.580Z,11.40
2017-07-17T16:30:41.126Z,11.57
2017-07-17T16:33:09.325Z,10.60
2017-07-17T16:35:36.859Z,10.50
2017-07-17T16:38:04.398Z,11.33
2017-07-17T16:40:32.743Z,10.53
2017-07-17T16:43:00.691Z,10.00
2017-07-17T16:45:28.229Z,10.43
2017-07-17T16:47:55.761Z,10.90
2017-07-17T16:50:24.413Z,9.70
2017-07-17T16:52:51.949Z,11.07
2017-07-17T16:55:20.238Z,9.03
2017-07-17T16:57:47.773Z,9.03
2017-07-17T17:00:15.307Z,8.30
2017-07-17T17:02:43.656Z,8.30
2017-07-17T17:05:11.914Z,7.97
2017-07-17T17:07:39.446Z,8.73
2017-07-17T17:10:06.978Z,7.87
2017-07-17T17:12:35.659Z,7.30
2017-07-17T17:15:03.961Z,8.17
2017-07-17T17:17:31.498Z,9.03
2017-07-17T17:20:00.452Z,8.73
2017-07-17T17:22:27.986Z,8.47
2017-07-17T17:24:55.530Z,8.80
2017-07-17T17:27:23.135Z,8.23
2017-07-17T17:29:50.661Z,8.33
2017-07-17T17:32:18.198Z,8.70
2017-07-17T17:34:46.571Z,8.57
2017-07-17T17:37:14.875Z,8.50
2017-07-17T17:39:42.410Z,8.00
2017-07-17T17:42:10.752Z,7.70
2017-07-17T17:44:38.297Z,8.90
2017-07-17T17:47:05.869Z,8.30
2017-07-17T17:49:33.411Z,8.13
2017-07-17T17:52:01.623Z,7.83
2017-07-17T17:54:29.174Z,8.90
2017-07-17T17:56:56.977Z,8.70
2017-07-17T17:59:25.312Z,8.53
2017-07-17T18:01:52.893Z,9.80
2017-07-17T18:04:20.440Z,8.80
2017-07-17T18:06:48.031Z,8.70
2017-07-17T18:09:16.340Z,8.17
2017-07-17T18:11:43.914Z,8.80
2017-07-17T18:14:11.454Z,7.63
2017-07-17T18:16:39.027Z,7.93
2017-07-17T18:19:06.565Z,7.20
2017-07-17T18:21:34.212Z,7.57
2017-07-17T18:24:02.515Z,7.57
2017-07-17T18:26:30.090Z,9.03
2017-07-17T18:28:57.625Z,7.90
2017-07-17T18:31:25.161Z,7.73
2017-07-17T18:33:52.826Z,7.57
2017-07-17T18:36:21.132Z,9.13
2017-07-17T18:38:49.141Z,9.83
2017-07-17T18:41:16.683Z,9.43
2017-07-17T18:43:44.221Z,9.57
2017-07-17T18:46:11.804Z,10.13
2017-07-17T18:48:39.348Z,9.20
2017-07-17T18:51:06.934Z,8.80
2017-07-17T18:53:34.614Z,8.47
2017-07-17T18:56:02.342Z,8.50
2017-07-17T18:58:29.940Z,7.93
2017-07-17T19:00:57.486Z,8.17
2017-07-17T19:03:25.083Z,8.20
2017-07-17T19:05:52.655Z,7.40
2017-07-17T19:08:20.267Z,8.40
2017-07-17T19:10:47.825Z,8.43
2017-07-17T19:13:15.419Z,7.33
2017-07-17T19:15:42.964Z,7.50
2017-07-17T19:18:11.758Z,6.90
2017-07-17T19:20:39.310Z,8.40
2017-07-17T19:23:06.854Z,6.10
2017-07-17T19:25:34.442Z,8.60
2017-07-17T19:28:01.995Z,6.60
2017-07-17T19:30:30.170Z,6.40
2017-07-17T19:32:57.718Z,6.43
2017-07-17T19:35:25.274Z,6.50
2017-07-17T19:37:52.986Z,6.60
2017-07-17T19:40:21.305Z,7.63
2017-07-17T19:42:48.942Z,6.10
2017-07-17T19:45:16.482Z,6.77
2017-07-17T19:47:44.077Z,6.80
2017-07-17T19:50:12.142Z,6.67
2017-07-17T19:52:39.683Z,8.57
2017-07-17T19:55:07.246Z,6.83
2017-07-17T19:57:34.899Z,7.30
2017-07-17T20:00:07.343Z,7.43
2017-07-17T20:02:34.883Z,7.07
2017-07-17T20:05:02.873Z,7.60
2017-07-17T20:07:30.439Z,7.00
2017-07-17T20:09:57.990Z,7.27
2017-07-17T20:12:25.563Z,7.83
2017-07-17T20:14:53.102Z,8.00
2017-07-17T20:17:21.282Z,8.20
2017-07-17T20:19:48.813Z,8.63
2017-07-17T20:22:16.354Z,8.03
2017-07-17T20:24:44.381Z,8.20
2017-07-17T20:27:11.964Z,8.87
2017-07-17T20:29:39.503Z,8.60
2017-07-17T20:32:07.135Z,8.70
2017-07-17T20:34:34.710Z,9.47
2017-07-17T20:37:03.054Z,8.13
2017-07-17T20:39:30.637Z,9.03
2017-07-17T20:41:58.215Z,9.60
2017-07-17T20:44:25.755Z,9.23
2017-07-17T20:46:53.383Z,8.75
2017-07-17T20:49:20.920Z,9.07
2017-07-17T20:51:49.485Z,9.70
2017-07-17T20:54:17.078Z,9.80
2017-07-17T20:56:45.580Z,8.60
2017-07-17T20:59:13.138Z,9.13
2017-07-17T21:01:40.686Z,8.70
2017-07-17T21:04:08.269Z,7.87
2017-07-17T21:06:35.815Z,7.82
2017-07-17T21:09:03.449Z,8.68
2017-07-17T21:11:30.990Z,8.07
2017-07-17T21:13:59.059Z,8.10
2017-07-17T21:16:26.602Z,7.95
2017-07-17T21:18:54.143Z,8.65
2017-07-17T21:21:21.794Z,8.10
2017-07-17T21:23:49.384Z,8.05
2017-07-17T21:26:16.925Z,7.97
2017-07-17T21:28:44.549Z,8.30
2017-07-17T21:31:12.921Z,8.32
2017-07-17T21:33:40.459Z,7.22
2017-07-17T21:36:08.000Z,7.22
2017-07-17T21:38:35.586Z,7.55
2017-07-17T21:41:03.130Z,8.50
2017-07-17T21:43:31.107Z,7.50
2017-07-17T21:45:58.645Z,7.78
2017-07-17T21:48:26.189Z,6.60
2017-07-17T21:50:53.850Z,7.25
2017-07-17T21:53:21.390Z,7.18
2017-07-17T21:55:49.756Z,6.03
2017-07-17T21:58:18.519Z,6.50
2017-07-17T22:00:46.061Z,6.47
2017-07-17T22:03:13.607Z,5.90
2017-07-17T22:05:41.770Z,5.62
2017-07-17T22:08:09.317Z,5.50
2017-07-17T22:10:36.873Z,5.47
2017-07-17T22:13:05.221Z,5.37
2017-07-17T22:15:32.867Z,5.93
2017-07-17T22:18:00.402Z,5.78
2017-07-17T22:20:27.982Z,6.95
2017-07-17T22:22:55.578Z,6.47
2017-07-17T22:25:23.124Z,7.40
2017-07-17T22:27:50.654Z,6.68
2017-07-17T22:30:18.344Z,6.85
2017-07-17T22:32:45.887Z,6.82
2017-07-17T22:35:13.465Z,6.65
2017-07-17T22:37:45.106Z,6.43
2017-07-17T22:54:02.346Z,8.00
2017-07-17T22:56:29.889Z,10.25
2017-07-17T22:58:57.426Z,6.55
2017-07-17T23:01:25.424Z,6.75
2017-07-17T23:03:52.957Z,7.57
2017-07-17T23:06:20.500Z,6.15
2017-07-17T23:09:03.670Z,6.40
2017-07-17T23:11:31.207Z,6.15
2017-07-17T23:13:58.785Z,7.10
2017-07-17T23:16:26.763Z,6.40
2017-07-17T23:18:54.295Z,7.15
2017-07-17T23:21:21.833Z,6.53
2017-07-17T23:23:49.400Z,6.87
2017-07-17T23:26:16.939Z,7.53
2017-07-17T23:28:45.589Z,7.93
2017-07-17T23:31:13.125Z,7.68
2017-07-17T23:33:40.661Z,6.47
2017-07-17T23:36:08.580Z,6.47
2017-07-17T23:38:36.120Z,6.75
2017-07-17T23:41:03.672Z,7.35
2017-07-17T23:43:31.596Z,7.75
2017-07-17T23:45:59.894Z,7.68
2017-07-17T23:48:27.435Z,6.80
2017-07-17T23:50:55.783Z,7.05
2017-07-17T23:53:23.318Z,7.10
2017-07-17T23:55:51.409Z,7.40
2017-07-17T23:58:18.946Z,7.37
